sensor_id;sensor_type;location;lat;lon;timestamp;pressure;altitude;pressure_sealevel;temperature;humidity
11413;BME280;5762;43.256;26.960;2024-02-21T00:00:39;102108.77;;;3.25;100.00
11413;BME280;5762;43.256;26.960;2024-02-21T00:03:09;102110.80;;;3.34;100.00
11413;BME280;5762;43.256;26.960;2024-02-21T00:05:38;102106.91;;;3.36;100.00
11413;BME280;5762;43.256;26.960;2024-02-21T00:08:07;102091.30;;;3.29;100.00
11413;BME280;5762;43.256;26.960;2024-02-21T00:10:36;102087.03;;;3.35;100.00
11413;BME280;5762;43.256;26.960;2024-02-21T00:13:04;102089.99;;;3.47;100.00
11413;BME280;5762;43.256;26.960;2024-02-21T00:15:33;102084.31;;;3.56;100.00
11413;BME280;5762;43.256;26.960;2024-02-21T00:18:02;102085.78;;;3.48;100.00
11413;BME280;5762;43.256;26.960;2024-02-21T00:20:31;102063.45;;;3.13;100.00
11413;BME280;5762;43.256;26.960;2024-02-21T00:23:00;102044.31;;;2.99;100.00
11413;BME280;5762;43.256;26.960;2024-02-21T00:25:29;102044.06;;;3.05;100.00
11413;BME280;5762;43.256;26.960;2024-02-21T00:27:58;102036.86;;;3.05;100.00
11413;BME280;5762;43.256;26.960;2024-02-21T00:30:28;102029.66;;;3.06;100.00
11413;BME280;5762;43.256;26.960;2024-02-21T00:32:57;102027.56;;;3.01;100.00
11413;BME280;5762;43.256;26.960;2024-02-21T00:35:25;102036.64;;;3.17;100.00
11413;BME280;5762;43.256;26.960;2024-02-21T00:37:59;102042.80;;;3.39;100.00
11413;BME280;5762;43.256;26.960;2024-02-21T00:40:24;102066.78;;;3.54;100.00
11413;BME280;5762;43.256;26.960;2024-02-21T00:42:52;102079.58;;;3.69;100.00
11413;BME280;5762;43.256;26.960;2024-02-21T00:45:21;102080.34;;;3.63;100.00
11413;BME280;5762;43.256;26.960;2024-02-21T00:47:50;102079.58;;;3.69;100.00
11413;BME280;5762;43.256;26.960;2024-02-21T00:50:18;102079.11;;;3.76;100.00
11413;BME280;5762;43.256;26.960;2024-02-21T00:52:46;102077.39;;;3.79;100.00
11413;BME280;5762;43.256;26.960;2024-02-21T00:55:15;102075.62;;;3.82;100.00
11413;BME280;5762;43.256;26.960;2024-02-21T00:57:43;102066.19;;;3.69;100.00
11413;BME280;5762;43.256;26.960;2024-02-21T01:00:13;102024.44;;;3.08;100.00
11413;BME280;5762;43.256;26.960;2024-02-21T01:02:42;102006.92;;;2.84;100.00
11413;BME280;5762;43.256;26.960;2024-02-21T01:05:10;102003.95;;;2.73;100.00
11413;BME280;5762;43.256;26.960;2024-02-21T01:07:39;101981.06;;;2.27;100.00
11413;BME280;5762;43.256;26.960;2024-02-21T01:10:08;101961.34;;;1.78;100.00
11413;BME280;5762;43.256;26.960;2024-02-21T01:12:36;101961.78;;;1.71;100.00
11413;BME280;5762;43.256;26.960;2024-02-21T01:15:06;101971.86;;;1.64;100.00
11413;BME280;5762;43.256;26.960;2024-02-21T01:17:35;101964.25;;;1.43;100.00
11413;BME280;5762;43.256;26.960;2024-02-21T01:20:03;101979.72;;;1.47;100.00
11413;BME280;5762;43.256;26.960;2024-02-21T01:22:34;101983.86;;;1.50;100.00
11413;BME280;5762;43.256;26.960;2024-02-21T01:25:03;101983.61;;;1.41;100.00
11413;BME280;5762;43.256;26.960;2024-02-21T01:27:32;101985.96;;;1.40;100.00
11413;BME280;5762;43.256;26.960;2024-02-21T01:30:00;101993.42;;;1.29;100.00
11413;BME280;5762;43.256;26.960;2024-02-21T01:32:29;101990.53;;;1.16;100.00
11413;BME280;5762;43.256;26.960;2024-02-21T01:34:58;101990.61;;;1.08;100.00
11413;BME280;5762;43.256;26.960;2024-02-21T01:37:27;102007.29;;;1.06;100.00
11413;BME280;5762;43.256;26.960;2024-02-21T01:39:55;102015.97;;;1.04;100.00
11413;BME280;5762;43.256;26.960;2024-02-21T01:42:25;102032.44;;;1.08;100.00
11413;BME280;5762;43.256;26.960;2024-02-21T01:44:53;102049.69;;;1.20;100.00
11413;BME280;5762;43.256;26.960;2024-02-21T01:47:21;102069.09;;;1.32;100.00
11413;BME280;5762;43.256;26.960;2024-02-21T01:49:51;102090.66;;;1.42;100.00
11413;BME280;5762;43.256;26.960;2024-02-21T01:52:20;102089.91;;;1.52;100.00
11413;BME280;5762;43.256;26.960;2024-02-21T01:54:48;102111.05;;;1.57;100.00
11413;BME280;5762;43.256;26.960;2024-02-21T01:57:17;102109.69;;;1.61;100.00
11413;BME280;5762;43.256;26.960;2024-02-21T01:59:45;102103.52;;;1.61;100.00
11413;BME280;5762;43.256;26.960;2024-02-21T02:02:14;102116.47;;;1.68;100.00
11413;BME280;5762;43.256;26.960;2024-02-21T02:04:43;102129.31;;;1.68;100.00
11413;BME280;5762;43.256;26.960;2024-02-21T02:07:13;102146.06;;;1.77;100.00
11413;BME280;5762;43.256;26.960;2024-02-21T02:09:43;102153.31;;;1.87;100.00
11413;BME280;5762;43.256;26.960;2024-02-21T02:12:12;102152.13;;;1.90;100.00
11413;BME280;5762;43.256;26.960;2024-02-21T02:14:42;102153.49;;;1.86;100.00
11413;BME280;5762;43.256;26.960;2024-02-21T02:17:10;102161.43;;;1.94;100.00
11413;BME280;5762;43.256;26.960;2024-02-21T02:19:39;102169.91;;;1.97;100.00
11413;BME280;5762;43.256;26.960;2024-02-21T02:22:12;102180.92;;;1.98;100.00
11413;BME280;5762;43.256;26.960;2024-02-21T02:24:39;102186.73;;;2.02;100.00
11413;BME280;5762;43.256;26.960;2024-02-21T02:27:09;102179.91;;;1.99;100.00
11413;BME280;5762;43.256;26.960;2024-02-21T02:29:37;102181.31;;;1.91;100.00
11413;BME280;5762;43.256;26.960;2024-02-21T02:32:06;102185.58;;;2.00;100.00
11413;BME280;5762;43.256;26.960;2024-02-21T02:34:35;102187.56;;;2.03;100.00
11413;BME280;5762;43.256;26.960;2024-02-21T02:37:05;102193.23;;;2.04;100.00
11413;BME280;5762;43.256;26.960;2024-02-21T02:39:34;102185.07;;;2.01;100.00
11413;BME280;5762;43.256;26.960;2024-02-21T02:42:04;102189.91;;;2.01;100.00
11413;BME280;5762;43.256;26.960;2024-02-21T02:44:33;102191.93;;;1.99;100.00
11413;BME280;5762;43.256;26.960;2024-02-21T02:47:01;102203.48;;;2.11;100.00
11413;BME280;5762;43.256;26.960;2024-02-21T02:49:30;102206.16;;;2.11;100.00
11413;BME280;5762;43.256;26.960;2024-02-21T02:51:59;102207.23;;;2.06;100.00
11413;BME280;5762;43.256;26.960;2024-02-21T02:54:30;102201.56;;;2.05;100.00
11413;BME280;5762;43.256;26.960;2024-02-21T02:56:58;102200.31;;;2.11;100.00
11413;BME280;5762;43.256;26.960;2024-02-21T02:59:26;102201.28;;;2.14;100.00
11413;BME280;5762;43.256;26.960;2024-02-21T03:01:55;102194.75;;;2.17;100.00
11413;BME280;5762;43.256;26.960;2024-02-21T03:04:24;102187.96;;;2.10;100.00
11413;BME280;5762;43.256;26.960;2024-02-21T03:06:54;102186.77;;;2.13;100.00
11413;BME280;5762;43.256;26.960;2024-02-21T03:09:23;102183.63;;;2.09;100.00
11413;BME280;5762;43.256;26.960;2024-02-21T03:11:52;102182.12;;;2.11;100.00
11413;BME280;5762;43.256;26.960;2024-02-21T03:14:22;102176.13;;;2.09;100.00
11413;BME280;5762;43.256;26.960;2024-02-21T03:16:51;102176.41;;;2.14;100.00
11413;BME280;5762;43.256;26.960;2024-02-21T03:19:19;102180.80;;;2.25;100.00
11413;BME280;5762;43.256;26.960;2024-02-21T03:21:49;102168.17;;;2.19;100.00
11413;BME280;5762;43.256;26.960;2024-02-21T03:24:21;102178.97;;;2.26;100.00
11413;BME280;5762;43.256;26.960;2024-02-21T03:26:47;102174.59;;;2.29;100.00
11413;BME280;5762;43.256;26.960;2024-02-21T03:29:17;102176.58;;;2.31;100.00
11413;BME280;5762;43.256;26.960;2024-02-21T03:31:46;102166.33;;;2.20;100.00
11413;BME280;5762;43.256;26.960;2024-02-21T03:34:14;102172.36;;;2.18;100.00
11413;BME280;5762;43.256;26.960;2024-02-21T03:36:44;102175.46;;;2.25;100.00
11413;BME280;5762;43.256;26.960;2024-02-21T03:39:13;102181.73;;;2.32;100.00
11413;BME280;5762;43.256;26.960;2024-02-21T03:41:43;102179.33;;;2.23;100.00
11413;BME280;5762;43.256;26.960;2024-02-21T03:44:11;102168.86;;;2.17;100.00
11413;BME280;5762;43.256;26.960;2024-02-21T03:46:40;102174.31;;;2.24;100.00
11413;BME280;5762;43.256;26.960;2024-02-21T03:49:08;102169.77;;;2.10;100.00
11413;BME280;5762;43.256;26.960;2024-02-21T03:51:37;102158.36;;;2.01;100.00
11413;BME280;5762;43.256;26.960;2024-02-21T03:54:05;102153.75;;;1.95;100.00
11413;BME280;5762;43.256;26.960;2024-02-21T03:56:36;102153.67;;;1.84;100.00
11413;BME280;5762;43.256;26.960;2024-02-21T03:59:03;102154.33;;;1.86;100.00
11413;BME280;5762;43.256;26.960;2024-02-21T04:01:32;102148.65;;;1.71;100.00
11413;BME280;5762;43.256;26.960;2024-02-21T04:04:02;102142.48;;;1.70;100.00
11413;BME280;5762;43.256;26.960;2024-02-21T04:06:30;102159.08;;;1.76;100.00
11413;BME280;5762;43.256;26.960;2024-02-21T04:08:59;102163.52;;;1.84;100.00
11413;BME280;5762;43.256;26.960;2024-02-21T04:11:27;102163.70;;;1.82;100.00
11413;BME280;5762;43.256;26.960;2024-02-21T04:13:56;102160.97;;;1.90;100.00
11413;BME280;5762;43.256;26.960;2024-02-21T04:16:24;102155.91;;;1.95;100.00
11413;BME280;5762;43.256;26.960;2024-02-21T04:18:54;102161.22;;;1.99;100.00
11413;BME280;5762;43.256;26.960;2024-02-21T04:21:23;102165.55;;;2.00;100.00
11413;BME280;5762;43.256;26.960;2024-02-21T04:23:52;102164.42;;;2.10;100.00
11413;BME280;5762;43.256;26.960;2024-02-21T04:26:21;102169.77;;;2.10;100.00
11413;BME280;5762;43.256;26.960;2024-02-21T04:28:49;102151.50;;;2.03;100.00
11413;BME280;5762;43.256;26.960;2024-02-21T04:31:17;102155.98;;;2.06;100.00
11413;BME280;5762;43.256;26.960;2024-02-21T04:33:45;102157.21;;;1.99;100.00
11413;BME280;5762;43.256;26.960;2024-02-21T04:36:14;102152.09;;;1.94;100.00
11413;BME280;5762;43.256;26.960;2024-02-21T04:38:42;102151.66;;;1.86;100.00
11413;BME280;5762;43.256;26.960;2024-02-21T04:41:11;102139.06;;;1.76;100.00
11413;BME280;5762;43.256;26.960;2024-02-21T04:43:40;102143.39;;;1.77;100.00
11413;BME280;5762;43.256;26.960;2024-02-21T04:46:08;102147.13;;;1.72;100.00
11413;BME280;5762;43.256;26.960;2024-02-21T04:48:38;102142.19;;;1.65;100.00
11413;BME280;5762;43.256;26.960;2024-02-21T04:51:06;102137.68;;;1.65;100.00
11413;BME280;5762;43.256;26.960;2024-02-21T04:53:34;102154.64;;;1.73;100.00
11413;BME280;5762;43.256;26.960;2024-02-21T04:56:03;102165.19;;;1.85;100.00
11413;BME280;5762;43.256;26.960;2024-02-21T04:58:31;102167.19;;;1.68;100.00
11413;BME280;5762;43.256;26.960;2024-02-21T05:01:00;102161.23;;;1.62;100.00
11413;BME280;5762;43.256;26.960;2024-02-21T05:03:29;102158.27;;;1.57;100.00
11413;BME280;5762;43.256;26.960;2024-02-21T05:05:58;102166.42;;;1.59;100.00
11413;BME280;5762;43.256;26.960;2024-02-21T05:08:27;102171.34;;;1.71;100.00
11413;BME280;5762;43.256;26.960;2024-02-21T05:10:55;102183.91;;;1.81;100.00
11413;BME280;5762;43.256;26.960;2024-02-21T05:13:23;102191.82;;;1.93;100.00
11413;BME280;5762;43.256;26.960;2024-02-21T05:15:52;102191.60;;;1.98;100.00
11413;BME280;5762;43.256;26.960;2024-02-21T05:18:20;102199.77;;;2.01;100.00
11413;BME280;5762;43.256;26.960;2024-02-21T05:20:48;102201.92;;;2.01;100.00
11413;BME280;5762;43.256;26.960;2024-02-21T05:23:17;102208.00;;;2.10;100.00
11413;BME280;5762;43.256;26.960;2024-02-21T05:25:45;102203.81;;;2.12;100.00
11413;BME280;5762;43.256;26.960;2024-02-21T05:28:14;102198.83;;;2.09;100.00
11413;BME280;5762;43.256;26.960;2024-02-21T05:30:42;102205.47;;;2.13;100.00
11413;BME280;5762;43.256;26.960;2024-02-21T05:33:10;102194.52;;;1.89;100.00
11413;BME280;5762;43.256;26.960;2024-02-21T05:35:39;102190.80;;;1.75;100.00
11413;BME280;5762;43.256;26.960;2024-02-21T05:38:09;102192.36;;;1.88;100.00
11413;BME280;5762;43.256;26.960;2024-02-21T05:40:37;102194.05;;;1.85;100.00
11413;BME280;5762;43.256;26.960;2024-02-21T05:43:10;102193.11;;;1.78;100.00
11413;BME280;5762;43.256;26.960;2024-02-21T05:45:38;102194.38;;;1.86;100.00
11413;BME280;5762;43.256;26.960;2024-02-21T05:48:06;102187.16;;;1.91;100.00
11413;BME280;5762;43.256;26.960;2024-02-21T05:50:35;102195.25;;;2.01;100.00
11413;BME280;5762;43.256;26.960;2024-02-21T05:53:04;102199.73;;;2.20;100.00
11413;BME280;5762;43.256;26.960;2024-02-21T05:55:33;102205.80;;;2.14;100.00
11413;BME280;5762;43.256;26.960;2024-02-21T05:58:01;102213.55;;;2.23;100.00
11413;BME280;5762;43.256;26.960;2024-02-21T06:00:30;102218.79;;;2.17;100.00
11413;BME280;5762;43.256;26.960;2024-02-21T06:02:58;102212.84;;;2.11;100.00
11413;BME280;5762;43.256;26.960;2024-02-21T06:05:26;102212.28;;;2.00;100.00
11413;BME280;5762;43.256;26.960;2024-02-21T06:07:55;102207.95;;;1.99;100.00
11413;BME280;5762;43.256;26.960;2024-02-21T06:10:23;102204.67;;;1.93;100.00
11413;BME280;5762;43.256;26.960;2024-02-21T06:12:52;102207.66;;;1.94;100.00
11413;BME280;5762;43.256;26.960;2024-02-21T06:15:20;102219.97;;;1.99;100.00
11413;BME280;5762;43.256;26.960;2024-02-21T06:17:49;102222.28;;;2.03;100.00
11413;BME280;5762;43.256;26.960;2024-02-21T06:20:17;102228.75;;;2.23;100.00
11413;BME280;5762;43.256;26.960;2024-02-21T06:22:46;102236.05;;;2.29;100.00
11413;BME280;5762;43.256;26.960;2024-02-21T06:25:15;102239.44;;;2.23;100.00
11413;BME280;5762;43.256;26.960;2024-02-21T06:27:43;102234.39;;;2.28;100.00
11413;BME280;5762;43.256;26.960;2024-02-21T06:30:12;102237.31;;;2.37;100.00
11413;BME280;5762;43.256;26.960;2024-02-21T06:32:41;102237.31;;;2.37;100.00
11413;BME280;5762;43.256;26.960;2024-02-21T06:35:09;102238.32;;;2.36;100.00
11413;BME280;5762;43.256;26.960;2024-02-21T06:37:37;102240.34;;;2.34;100.00
11413;BME280;5762;43.256;26.960;2024-02-21T06:40:06;102239.52;;;2.33;100.00
11413;BME280;5762;43.256;26.960;2024-02-21T06:42:35;102243.63;;;2.40;100.00
11413;BME280;5762;43.256;26.960;2024-02-21T06:45:03;102239.19;;;2.32;100.00
11413;BME280;5762;43.256;26.960;2024-02-21T06:47:33;102237.96;;;2.20;100.00
11413;BME280;5762;43.256;26.960;2024-02-21T06:50:01;102252.84;;;2.38;100.00
11413;BME280;5762;43.256;26.960;2024-02-21T06:52:29;102266.48;;;2.57;100.00
11413;BME280;5762;43.256;26.960;2024-02-21T06:54:58;102250.91;;;2.61;100.00
11413;BME280;5762;43.256;26.960;2024-02-21T06:57:28;102248.69;;;2.50;100.00
11413;BME280;5762;43.256;26.960;2024-02-21T06:59:56;102260.08;;;2.62;100.00
11413;BME280;5762;43.256;26.960;2024-02-21T07:02:24;102263.55;;;2.67;100.00
11413;BME280;5762;43.256;26.960;2024-02-21T07:04:53;102263.04;;;2.67;100.00
11413;BME280;5762;43.256;26.960;2024-02-21T07:07:21;102285.20;;;3.01;100.00
11413;BME280;5762;43.256;26.960;2024-02-21T07:09:50;102290.55;;;3.01;100.00
11413;BME280;5762;43.256;26.960;2024-02-21T07:12:19;102290.28;;;3.11;100.00
11413;BME280;5762;43.256;26.960;2024-02-21T07:14:47;102291.40;;;3.13;100.00
11413;BME280;5762;43.256;26.960;2024-02-21T07:17:15;102298.64;;;3.23;100.00
11413;BME280;5762;43.256;26.960;2024-02-21T07:19:43;102293.70;;;3.30;100.00
11413;BME280;5762;43.256;26.960;2024-02-21T07:22:11;102291.77;;;3.24;100.00
11413;BME280;5762;43.256;26.960;2024-02-21T07:24:41;102272.66;;;3.02;100.00
11413;BME280;5762;43.256;26.960;2024-02-21T07:27:09;102268.60;;;3.06;100.00
11413;BME280;5762;43.256;26.960;2024-02-21T07:29:39;102263.75;;;3.06;100.00
11413;BME280;5762;43.256;26.960;2024-02-21T07:32:07;102265.65;;;3.01;100.00
11413;BME280;5762;43.256;26.960;2024-02-21T07:34:35;102276.34;;;3.26;100.00
11413;BME280;5762;43.256;26.960;2024-02-21T07:37:04;102270.25;;;3.32;100.00
11413;BME280;5762;43.256;26.960;2024-02-21T07:39:35;102271.94;;;3.44;100.00
11413;BME280;5762;43.256;26.960;2024-02-21T07:42:03;102273.53;;;3.60;100.00
11413;BME280;5762;43.256;26.960;2024-02-21T07:44:32;102279.94;;;3.80;100.00
11413;BME280;5762;43.256;26.960;2024-02-21T07:47:01;102272.70;;;3.91;100.00
11413;BME280;5762;43.256;26.960;2024-02-21T07:49:29;102267.22;;;3.99;100.00
11413;BME280;5762;43.256;26.960;2024-02-21T07:52:00;102277.46;;;4.17;100.00
11413;BME280;5762;43.256;26.960;2024-02-21T07:54:27;102274.91;;;4.20;100.00
11413;BME280;5762;43.256;26.960;2024-02-21T07:56:55;102248.21;;;4.05;100.00
11413;BME280;5762;43.256;26.960;2024-02-21T07:59:23;102236.41;;;4.10;100.00
11413;BME280;5762;43.256;26.960;2024-02-21T08:01:52;102229.84;;;4.30;100.00
11413;BME280;5762;43.256;26.960;2024-02-21T08:04:21;102230.87;;;4.63;100.00
11413;BME280;5762;43.256;26.960;2024-02-21T08:06:53;102220.09;;;4.74;100.00
11413;BME280;5762;43.256;26.960;2024-02-21T08:09:24;102205.03;;;4.73;100.00
11413;BME280;5762;43.256;26.960;2024-02-21T08:11:57;102187.28;;;4.72;100.00
11413;BME280;5762;43.256;26.960;2024-02-21T08:14:23;102184.75;;;4.88;100.00
11413;BME280;5762;43.256;26.960;2024-02-21T08:16:51;102164.77;;;4.97;100.00
11413;BME280;5762;43.256;26.960;2024-02-21T08:19:22;102136.98;;;4.94;100.00
11413;BME280;5762;43.256;26.960;2024-02-21T08:21:51;102123.70;;;5.03;100.00
11413;BME280;5762;43.256;26.960;2024-02-21T08:24:19;102121.58;;;5.16;100.00
11413;BME280;5762;43.256;26.960;2024-02-21T08:26:48;102090.87;;;5.01;100.00
11413;BME280;5762;43.256;26.960;2024-02-21T08:29:17;102081.93;;;5.18;100.00
11413;BME280;5762;43.256;26.960;2024-02-21T08:31:46;102081.63;;;5.50;100.00
11413;BME280;5762;43.256;26.960;2024-02-21T08:34:14;102053.80;;;5.66;100.00
11413;BME280;5762;43.256;26.960;2024-02-21T08:36:44;102050.55;;;6.00;100.00
11413;BME280;5762;43.256;26.960;2024-02-21T08:39:13;102008.86;;;6.13;100.00
11413;BME280;5762;43.256;26.960;2024-02-21T08:41:42;101976.56;;;6.35;100.00
11413;BME280;5762;43.256;26.960;2024-02-21T08:44:11;101938.45;;;6.45;100.00
11413;BME280;5762;43.256;26.960;2024-02-21T08:46:41;101912.44;;;6.64;100.00
11413;BME280;5762;43.256;26.960;2024-02-21T08:49:10;101877.19;;;6.72;100.00
11413;BME280;5762;43.256;26.960;2024-02-21T08:51:38;101843.41;;;6.76;100.00
11413;BME280;5762;43.256;26.960;2024-02-21T08:54:07;101829.74;;;6.96;100.00
11413;BME280;5762;43.256;26.960;2024-02-21T08:56:37;101839.49;;;7.15;100.00
11413;BME280;5762;43.256;26.960;2024-02-21T08:59:05;101839.05;;;7.27;100.00
11413;BME280;5762;43.256;26.960;2024-02-21T09:01:34;101818.53;;;7.35;100.00
11413;BME280;5762;43.256;26.960;2024-02-21T09:04:02;101823.69;;;7.55;100.00
11413;BME280;5762;43.256;26.960;2024-02-21T09:06:31;101804.55;;;7.66;100.00
11413;BME280;5762;43.256;26.960;2024-02-21T09:09:00;101766.45;;;7.62;100.00
11413;BME280;5762;43.256;26.960;2024-02-21T09:11:28;101731.26;;;7.66;100.00
11413;BME280;5762;43.256;26.960;2024-02-21T09:13:58;101714.46;;;7.62;100.00
11413;BME280;5762;43.256;26.960;2024-02-21T09:16:27;101707.30;;;7.67;100.00
11413;BME280;5762;43.256;26.960;2024-02-21T09:18:55;101730.22;;;7.88;100.00
11413;BME280;5762;43.256;26.960;2024-02-21T09:21:24;101733.97;;;7.99;100.00
11413;BME280;5762;43.256;26.960;2024-02-21T09:23:52;101721.45;;;8.16;100.00
11413;BME280;5762;43.256;26.960;2024-02-21T09:26:20;101704.98;;;8.27;100.00
11413;BME280;5762;43.256;26.960;2024-02-21T09:28:48;101671.68;;;8.33;100.00
11413;BME280;5762;43.256;26.960;2024-02-21T09:31:16;101660.17;;;8.49;100.00
11413;BME280;5762;43.256;26.960;2024-02-21T09:33:45;101625.72;;;8.65;100.00
11413;BME280;5762;43.256;26.960;2024-02-21T09:36:14;101610.86;;;8.80;100.00
11413;BME280;5762;43.256;26.960;2024-02-21T09:38:42;101582.41;;;8.74;100.00
11413;BME280;5762;43.256;26.960;2024-02-21T09:41:23;101566.96;;;9.01;100.00
11413;BME280;5762;43.256;26.960;2024-02-21T09:43:49;101547.09;;;9.07;100.00
11413;BME280;5762;43.256;26.960;2024-02-21T09:46:18;101534.63;;;9.20;100.00
11413;BME280;5762;43.256;26.960;2024-02-21T09:51:33;101523.25;;;9.35;100.00
11413;BME280;5762;43.256;26.960;2024-02-21T09:54:04;101489.86;;;9.44;100.00
11413;BME280;5762;43.256;26.960;2024-02-21T09:56:32;101466.52;;;9.37;100.00
11413;BME280;5762;43.256;26.960;2024-02-21T09:59:01;101466.10;;;9.46;100.00
11413;BME280;5762;43.256;26.960;2024-02-21T10:01:30;101457.67;;;9.42;100.00
11413;BME280;5762;43.256;26.960;2024-02-21T10:03:59;101452.59;;;9.46;100.00
11413;BME280;5762;43.256;26.960;2024-02-21T10:06:27;101454.97;;;9.42;100.00
11413;BME280;5762;43.256;26.960;2024-02-21T10:08:55;101467.36;;;9.57;100.00
11413;BME280;5762;43.256;26.960;2024-02-21T10:11:26;101459.55;;;9.80;100.00
11413;BME280;5762;43.256;26.960;2024-02-21T10:14:06;101455.94;;;9.94;100.00
11413;BME280;5762;43.256;26.960;2024-02-21T10:16:34;101433.59;;;10.01;100.00
11413;BME280;5762;43.256;26.960;2024-02-21T10:19:03;101421.15;;;10.24;100.00
11413;BME280;5762;43.256;26.960;2024-02-21T10:21:31;101393.76;;;10.48;100.00
11413;BME280;5762;43.256;26.960;2024-02-21T10:23:59;101433.93;;;10.58;100.00
11413;BME280;5762;43.256;26.960;2024-02-21T10:26:27;101422.16;;;10.72;100.00
11413;BME280;5762;43.256;26.960;2024-02-21T10:28:55;101374.36;;;10.93;100.00
11413;BME280;5762;43.256;26.960;2024-02-21T10:31:24;101335.72;;;11.07;100.00
11413;BME280;5762;43.256;26.960;2024-02-21T10:33:56;101344.25;;;11.34;100.00
11413;BME280;5762;43.256;26.960;2024-02-21T10:36:25;101287.38;;;11.54;100.00
11413;BME280;5762;43.256;26.960;2024-02-21T10:38:53;101235.09;;;11.69;100.00
11413;BME280;5762;43.256;26.960;2024-02-21T10:41:23;101242.16;;;11.80;100.00
11413;BME280;5762;43.256;26.960;2024-02-21T10:43:52;101247.63;;;12.00;100.00
11413;BME280;5762;43.256;26.960;2024-02-21T10:46:22;101252.23;;;12.28;100.00
11413;BME280;5762;43.256;26.960;2024-02-21T10:49:01;101196.04;;;12.26;100.00
11413;BME280;5762;43.256;26.960;2024-02-21T10:51:20;101002.17;;;12.39;100.00
11413;BME280;5762;43.256;26.960;2024-02-21T10:58:54;100854.05;;;11.77;100.00
11413;BME280;5762;43.256;26.960;2024-02-21T11:01:25;100936.05;;;11.23;100.00
11413;BME280;5762;43.256;26.960;2024-02-21T11:03:55;100989.16;;;11.24;100.00
11413;BME280;5762;43.256;26.960;2024-02-21T11:06:23;100974.25;;;11.34;100.00
11413;BME280;5762;43.256;26.960;2024-02-21T11:09:04;100863.98;;;11.09;100.00
11413;BME280;5762;43.256;26.960;2024-02-21T11:11:37;100873.77;;;11.00;100.00
11413;BME280;5762;43.256;26.960;2024-02-21T11:14:09;100852.11;;;10.82;100.00
11413;BME280;5762;43.256;26.960;2024-02-21T11:16:37;100852.41;;;10.70;100.00
11413;BME280;5762;43.256;26.960;2024-02-21T11:19:07;100892.19;;;10.75;100.00
11413;BME280;5762;43.256;26.960;2024-02-21T11:21:35;100824.80;;;10.73;100.00
11413;BME280;5762;43.256;26.960;2024-02-21T11:24:04;100790.64;;;10.78;100.00
11413;BME280;5762;43.256;26.960;2024-02-21T11:26:32;100760.86;;;10.78;100.00
11413;BME280;5762;43.256;26.960;2024-02-21T11:29:00;100733.50;;;10.82;100.00
11413;BME280;5762;43.256;26.960;2024-02-21T11:31:42;100731.58;;;10.90;100.00
11413;BME280;5762;43.256;26.960;2024-02-21T11:34:08;100740.78;;;10.94;100.00
11413;BME280;5762;43.256;26.960;2024-02-21T11:36:46;100713.41;;;11.00;100.00
11413;BME280;5762;43.256;26.960;2024-02-21T11:39:06;100707.16;;;11.05;100.00
11413;BME280;5762;43.256;26.960;2024-02-21T11:41:35;100722.78;;;11.21;100.00
11413;BME280;5762;43.256;26.960;2024-02-21T11:44:03;100745.27;;;11.21;100.00
11413;BME280;5762;43.256;26.960;2024-02-21T11:46:31;100777.53;;;11.15;100.00
11413;BME280;5762;43.256;26.960;2024-02-21T11:48:59;100775.36;;;11.17;100.00
11413;BME280;5762;43.256;26.960;2024-02-21T11:51:28;100789.44;;;11.22;100.00
11413;BME280;5762;43.256;26.960;2024-02-21T11:53:56;100800.80;;;11.31;100.00
11413;BME280;5762;43.256;26.960;2024-02-21T11:56:24;100788.30;;;11.40;100.00
11413;BME280;5762;43.256;26.960;2024-02-21T11:58:54;100736.82;;;11.35;100.00
11413;BME280;5762;43.256;26.960;2024-02-21T12:01:22;100702.38;;;11.38;100.00
11413;BME280;5762;43.256;26.960;2024-02-21T12:03:50;100693.96;;;11.43;100.00
11413;BME280;5762;43.256;26.960;2024-02-21T12:06:18;100671.47;;;11.42;100.00
11413;BME280;5762;43.256;26.960;2024-02-21T12:08:47;100639.83;;;11.30;100.00
11413;BME280;5762;43.256;26.960;2024-02-21T12:11:16;100627.66;;;11.25;100.00
11413;BME280;5762;43.256;26.960;2024-02-21T12:13:45;100631.42;;;11.29;100.00
11413;BME280;5762;43.256;26.960;2024-02-21T12:16:16;100640.63;;;11.30;100.00
11413;BME280;5762;43.256;26.960;2024-02-21T12:18:45;100645.77;;;11.32;100.00
11413;BME280;5762;43.256;26.960;2024-02-21T12:21:13;100653.06;;;11.36;100.00
11413;BME280;5762;43.256;26.960;2024-02-21T12:23:41;100658.13;;;11.46;100.00
11413;BME280;5762;43.256;26.960;2024-02-21T12:26:10;100658.12;;;11.48;100.00
11413;BME280;5762;43.256;26.960;2024-02-21T12:28:39;100657.57;;;11.49;100.00
11413;BME280;5762;43.256;26.960;2024-02-21T12:31:07;100660.78;;;11.56;100.00
11413;BME280;5762;43.256;26.960;2024-02-21T12:33:35;100656.09;;;11.69;100.00
11413;BME280;5762;43.256;26.960;2024-02-21T12:36:03;100648.21;;;11.70;100.00
11413;BME280;5762;43.256;26.960;2024-02-21T12:38:31;100631.38;;;11.73;100.00
11413;BME280;5762;43.256;26.960;2024-02-21T12:41:00;100630.80;;;11.79;100.00
11413;BME280;5762;43.256;26.960;2024-02-21T12:43:29;100618.61;;;11.76;100.00
11413;BME280;5762;43.256;26.960;2024-02-21T12:45:57;100625.86;;;11.86;100.00
11413;BME280;5762;43.256;26.960;2024-02-21T12:48:25;100620.13;;;11.90;100.00
11413;BME280;5762;43.256;26.960;2024-02-21T12:50:53;100611.95;;;11.95;100.00
11413;BME280;5762;43.256;26.960;2024-02-21T12:53:21;100613.55;;;11.98;100.00
11413;BME280;5762;43.256;26.960;2024-02-21T12:55:51;100599.67;;;12.02;100.00
11413;BME280;5762;43.256;26.960;2024-02-21T12:58:20;100602.42;;;11.97;100.00
11413;BME280;5762;43.256;26.960;2024-02-21T13:00:48;100627.63;;;12.00;100.00
11413;BME280;5762;43.256;26.960;2024-02-21T13:03:16;100642.82;;;12.01;100.00